sensor_id;sensor_type;location;lat;lon;timestamp;P1;durP1;ratioP1;P2;durP2;ratioP2
75535;SDS011;64119;52.070;20.804;2023-03-17T00:01:50;19.40;;;10.00;;
75535;SDS011;64119;52.070;20.804;2023-03-17T00:07:39;18.10;;;9.50;;
75535;SDS011;64119;52.070;20.804;2023-03-17T00:10:21;20.30;;;10.40;;
75535;SDS011;64119;52.070;20.804;2023-03-17T00:12:52;19.20;;;10.10;;
75535;SDS011;64119;52.070;20.804;2023-03-17T00:15:21;16.20;;;10.20;;
75535;SDS011;64119;52.070;20.804;2023-03-17T00:17:53;16.00;;;10.00;;
75535;SDS011;64119;52.070;20.804;2023-03-17T00:22:58;18.50;;;8.90;;
75535;SDS011;64119;52.070;20.804;2023-03-17T00:25:28;19.40;;;9.20;;
75535;SDS011;64119;52.070;20.804;2023-03-17T00:27:59;14.80;;;7.40;;
75535;SDS011;64119;52.070;20.804;2023-03-17T00:30:30;19.90;;;10.30;;
75535;SDS011;64119;52.070;20.804;2023-03-17T00:32:58;16.90;;;9.00;;
75535;SDS011;64119;52.070;20.804;2023-03-17T00:35:27;14.40;;;8.30;;
75535;SDS011;64119;52.070;20.804;2023-03-17T00:37:56;18.50;;;9.80;;
75535;SDS011;64119;52.070;20.804;2023-03-17T00:40:25;19.20;;;10.00;;
75535;SDS011;64119;52.070;20.804;2023-03-17T00:43:00;18.00;;;9.20;;
75535;SDS011;64119;52.070;20.804;2023-03-17T00:45:29;19.70;;;9.60;;
75535;SDS011;64119;52.070;20.804;2023-03-17T00:47:57;18.90;;;9.40;;
75535;SDS011;64119;52.070;20.804;2023-03-17T00:50:26;18.80;;;9.70;;
75535;SDS011;64119;52.070;20.804;2023-03-17T00:55:24;17.20;;;8.00;;
75535;SDS011;64119;52.070;20.804;2023-03-17T00:57:53;17.20;;;9.50;;
75535;SDS011;64119;52.070;20.804;2023-03-17T01:02:54;18.60;;;8.50;;
75535;SDS011;64119;52.070;20.804;2023-03-17T01:08:44;16.10;;;8.90;;
75535;SDS011;64119;52.070;20.804;2023-03-17T01:11:13;19.60;;;10.60;;
75535;SDS011;64119;52.070;20.804;2023-03-17T01:13:46;20.80;;;9.90;;
75535;SDS011;64119;52.070;20.804;2023-03-17T01:16:13;19.00;;;10.60;;
75535;SDS011;64119;52.070;20.804;2023-03-17T01:18:40;23.00;;;11.20;;
75535;SDS011;64119;52.070;20.804;2023-03-17T01:21:07;20.70;;;9.10;;
75535;SDS011;64119;52.070;20.804;2023-03-17T01:23:34;17.70;;;9.40;;
75535;SDS011;64119;52.070;20.804;2023-03-17T01:26:00;22.80;;;10.10;;
75535;SDS011;64119;52.070;20.804;2023-03-17T01:28:27;25.30;;;11.30;;
75535;SDS011;64119;52.070;20.804;2023-03-17T01:30:53;17.10;;;9.30;;
75535;SDS011;64119;52.070;20.804;2023-03-17T01:33:20;17.40;;;10.00;;
75535;SDS011;64119;52.070;20.804;2023-03-17T01:35:48;19.80;;;10.60;;
75535;SDS011;64119;52.070;20.804;2023-03-17T01:38:15;18.60;;;9.40;;
75535;SDS011;64119;52.070;20.804;2023-03-17T01:40:44;17.50;;;9.20;;
75535;SDS011;64119;52.070;20.804;2023-03-17T01:54:18;26.90;;;13.10;;
75535;SDS011;64119;52.070;20.804;2023-03-17T01:56:50;29.70;;;12.20;;
75535;SDS011;64119;52.070;20.804;2023-03-17T01:59:23;27.50;;;12.70;;
75535;SDS011;64119;52.070;20.804;2023-03-17T02:01:56;27.30;;;15.00;;
75535;SDS011;64119;52.070;20.804;2023-03-17T02:04:27;34.60;;;17.20;;
75535;SDS011;64119;52.070;20.804;2023-03-17T02:06:54;32.70;;;16.30;;
75535;SDS011;64119;52.070;20.804;2023-03-17T02:11:52;27.20;;;13.40;;
75535;SDS011;64119;52.070;20.804;2023-03-17T02:14:20;30.30;;;13.60;;
75535;SDS011;64119;52.070;20.804;2023-03-17T02:16:47;31.40;;;16.00;;
75535;SDS011;64119;52.070;20.804;2023-03-17T02:19:15;38.40;;;18.50;;
75535;SDS011;64119;52.070;20.804;2023-03-17T02:21:42;37.10;;;18.20;;
75535;SDS011;64119;52.070;20.804;2023-03-17T02:24:19;34.90;;;18.00;;
75535;SDS011;64119;52.070;20.804;2023-03-17T02:27:11;37.40;;;18.00;;
75535;SDS011;64119;52.070;20.804;2023-03-17T02:29:52;35.70;;;15.90;;
75535;SDS011;64119;52.070;20.804;2023-03-17T02:32:18;39.10;;;19.20;;
75535;SDS011;64119;52.070;20.804;2023-03-17T02:34:46;32.10;;;16.20;;
75535;SDS011;64119;52.070;20.804;2023-03-17T02:37:13;27.40;;;13.20;;
75535;SDS011;64119;52.070;20.804;2023-03-17T02:39:41;27.80;;;14.10;;
75535;SDS011;64119;52.070;20.804;2023-03-17T02:42:08;33.40;;;14.30;;
75535;SDS011;64119;52.070;20.804;2023-03-17T02:44:35;34.10;;;15.90;;
75535;SDS011;64119;52.070;20.804;2023-03-17T02:47:01;30.20;;;16.10;;
75535;SDS011;64119;52.070;20.804;2023-03-17T02:49:28;29.70;;;15.50;;
75535;SDS011;64119;52.070;20.804;2023-03-17T02:51:56;30.00;;;16.10;;
75535;SDS011;64119;52.070;20.804;2023-03-17T02:54:23;31.00;;;15.60;;
75535;SDS011;64119;52.070;20.804;2023-03-17T02:56:49;29.00;;;15.00;;
75535;SDS011;64119;52.070;20.804;2023-03-17T02:59:16;34.70;;;16.10;;
75535;SDS011;64119;52.070;20.804;2023-03-17T03:01:42;29.30;;;15.00;;
75535;SDS011;64119;52.070;20.804;2023-03-17T03:07:42;28.20;;;15.40;;
75535;SDS011;64119;52.070;20.804;2023-03-17T03:10:10;26.90;;;13.20;;
75535;SDS011;64119;52.070;20.804;2023-03-17T03:12:38;24.80;;;13.10;;
75535;SDS011;64119;52.070;20.804;2023-03-17T03:15:06;22.30;;;10.70;;
75535;SDS011;64119;52.070;20.804;2023-03-17T03:17:36;19.80;;;10.50;;
75535;SDS011;64119;52.070;20.804;2023-03-17T03:20:04;23.30;;;11.50;;
75535;SDS011;64119;52.070;20.804;2023-03-17T03:22:33;29.50;;;14.20;;
75535;SDS011;64119;52.070;20.804;2023-03-17T03:25:00;28.70;;;13.80;;
75535;SDS011;64119;52.070;20.804;2023-03-17T03:27:28;22.20;;;12.30;;
75535;SDS011;64119;52.070;20.804;2023-03-17T03:29:56;29.80;;;13.10;;
75535;SDS011;64119;52.070;20.804;2023-03-17T03:32:24;28.90;;;13.20;;
75535;SDS011;64119;52.070;20.804;2023-03-17T03:34:54;29.60;;;14.30;;
75535;SDS011;64119;52.070;20.804;2023-03-17T03:37:23;27.00;;;12.90;;
75535;SDS011;64119;52.070;20.804;2023-03-17T03:39:51;27.70;;;13.40;;
75535;SDS011;64119;52.070;20.804;2023-03-17T03:42:19;27.30;;;13.80;;
75535;SDS011;64119;52.070;20.804;2023-03-17T03:44:47;26.60;;;13.10;;
75535;SDS011;64119;52.070;20.804;2023-03-17T03:47:15;25.00;;;13.30;;
75535;SDS011;64119;52.070;20.804;2023-03-17T03:49:43;27.30;;;12.90;;
75535;SDS011;64119;52.070;20.804;2023-03-17T03:52:11;26.30;;;13.80;;
75535;SDS011;64119;52.070;20.804;2023-03-17T03:54:40;29.80;;;13.50;;
75535;SDS011;64119;52.070;20.804;2023-03-17T03:57:08;22.20;;;12.50;;
75535;SDS011;64119;52.070;20.804;2023-03-17T03:59:36;27.00;;;12.20;;
75535;SDS011;64119;52.070;20.804;2023-03-17T04:02:04;22.50;;;11.70;;
75535;SDS011;64119;52.070;20.804;2023-03-17T04:07:27;26.00;;;12.70;;
75535;SDS011;64119;52.070;20.804;2023-03-17T04:09:55;25.60;;;13.30;;
75535;SDS011;64119;52.070;20.804;2023-03-17T04:12:23;23.00;;;11.10;;
75535;SDS011;64119;52.070;20.804;2023-03-17T04:14:51;25.70;;;13.70;;
75535;SDS011;64119;52.070;20.804;2023-03-17T04:17:18;21.60;;;12.30;;
75535;SDS011;64119;52.070;20.804;2023-03-17T04:19:46;22.80;;;11.90;;
75535;SDS011;64119;52.070;20.804;2023-03-17T04:22:14;14.70;;;8.80;;
75535;SDS011;64119;52.070;20.804;2023-03-17T04:24:42;21.70;;;10.60;;
75535;SDS011;64119;52.070;20.804;2023-03-17T04:27:10;25.40;;;12.60;;
75535;SDS011;64119;52.070;20.804;2023-03-17T04:29:38;22.00;;;12.50;;
75535;SDS011;64119;52.070;20.804;2023-03-17T04:32:06;21.10;;;8.30;;
75535;SDS011;64119;52.070;20.804;2023-03-17T04:34:34;21.30;;;11.50;;
75535;SDS011;64119;52.070;20.804;2023-03-17T04:37:02;24.90;;;12.40;;
75535;SDS011;64119;52.070;20.804;2023-03-17T04:39:30;25.10;;;12.80;;
75535;SDS011;64119;52.070;20.804;2023-03-17T04:41:58;29.10;;;12.70;;
75535;SDS011;64119;52.070;20.804;2023-03-17T04:44:26;24.70;;;12.00;;
75535;SDS011;64119;52.070;20.804;2023-03-17T04:46:54;29.80;;;14.10;;
75535;SDS011;64119;52.070;20.804;2023-03-17T04:49:22;24.50;;;12.70;;
75535;SDS011;64119;52.070;20.804;2023-03-17T04:51:50;20.30;;;11.80;;
75535;SDS011;64119;52.070;20.804;2023-03-17T04:54:18;22.10;;;11.00;;
75535;SDS011;64119;52.070;20.804;2023-03-17T04:56:46;19.80;;;11.20;;
75535;SDS011;64119;52.070;20.804;2023-03-17T04:59:14;21.20;;;11.10;;
75535;SDS011;64119;52.070;20.804;2023-03-17T05:01:42;19.20;;;8.80;;
75535;SDS011;64119;52.070;20.804;2023-03-17T05:04:10;15.10;;;8.80;;
75535;SDS011;64119;52.070;20.804;2023-03-17T05:06:48;27.10;;;14.60;;
75535;SDS011;64119;52.070;20.804;2023-03-17T05:09:16;19.80;;;9.20;;
75535;SDS011;64119;52.070;20.804;2023-03-17T05:11:44;27.00;;;13.00;;
75535;SDS011;64119;52.070;20.804;2023-03-17T05:14:13;31.60;;;15.00;;
75535;SDS011;64119;52.070;20.804;2023-03-17T05:16:40;38.40;;;18.70;;
75535;SDS011;64119;52.070;20.804;2023-03-17T05:19:08;32.70;;;16.60;;
75535;SDS011;64119;52.070;20.804;2023-03-17T05:21:36;32.50;;;17.70;;
75535;SDS011;64119;52.070;20.804;2023-03-17T05:24:04;33.70;;;16.70;;
75535;SDS011;64119;52.070;20.804;2023-03-17T05:26:32;30.20;;;15.20;;
75535;SDS011;64119;52.070;20.804;2023-03-17T05:29:01;25.20;;;13.60;;
75535;SDS011;64119;52.070;20.804;2023-03-17T05:31:29;27.80;;;12.10;;
75535;SDS011;64119;52.070;20.804;2023-03-17T05:33:58;18.40;;;8.90;;
75535;SDS011;64119;52.070;20.804;2023-03-17T05:36:27;20.10;;;11.00;;
75535;SDS011;64119;52.070;20.804;2023-03-17T05:38:54;16.00;;;8.80;;
75535;SDS011;64119;52.070;20.804;2023-03-17T05:41:22;26.00;;;12.00;;
75535;SDS011;64119;52.070;20.804;2023-03-17T05:43:50;27.00;;;12.40;;
75535;SDS011;64119;52.070;20.804;2023-03-17T05:46:18;27.00;;;13.40;;
75535;SDS011;64119;52.070;20.804;2023-03-17T05:48:47;28.40;;;12.50;;
75535;SDS011;64119;52.070;20.804;2023-03-17T05:51:15;17.80;;;8.90;;
75535;SDS011;64119;52.070;20.804;2023-03-17T05:53:43;24.30;;;11.10;;
75535;SDS011;64119;52.070;20.804;2023-03-17T05:56:10;20.90;;;10.20;;
75535;SDS011;64119;52.070;20.804;2023-03-17T05:58:39;19.00;;;9.90;;
75535;SDS011;64119;52.070;20.804;2023-03-17T06:01:08;19.60;;;9.00;;
75535;SDS011;64119;52.070;20.804;2023-03-17T06:03:36;14.50;;;6.20;;
75535;SDS011;64119;52.070;20.804;2023-03-17T06:06:05;12.40;;;7.10;;
75535;SDS011;64119;52.070;20.804;2023-03-17T06:08:33;21.50;;;10.50;;
75535;SDS011;64119;52.070;20.804;2023-03-17T06:11:01;19.00;;;9.90;;
75535;SDS011;64119;52.070;20.804;2023-03-17T06:13:28;16.00;;;8.70;;
75535;SDS011;64119;52.070;20.804;2023-03-17T06:15:57;19.70;;;9.60;;
75535;SDS011;64119;52.070;20.804;2023-03-17T06:18:25;20.20;;;9.50;;
75535;SDS011;64119;52.070;20.804;2023-03-17T06:20:53;22.30;;;11.20;;
75535;SDS011;64119;52.070;20.804;2023-03-17T06:23:21;9.80;;;6.00;;
75535;SDS011;64119;52.070;20.804;2023-03-17T06:25:50;21.10;;;9.80;;
75535;SDS011;64119;52.070;20.804;2023-03-17T06:28:18;19.80;;;11.20;;
75535;SDS011;64119;52.070;20.804;2023-03-17T06:30:46;16.40;;;8.20;;
75535;SDS011;64119;52.070;20.804;2023-03-17T06:33:14;21.00;;;9.20;;
75535;SDS011;64119;52.070;20.804;2023-03-17T06:35:44;19.90;;;10.40;;
75535;SDS011;64119;52.070;20.804;2023-03-17T06:38:12;13.70;;;8.10;;
75535;SDS011;64119;52.070;20.804;2023-03-17T06:40:40;18.60;;;9.40;;
75535;SDS011;64119;52.070;20.804;2023-03-17T06:43:08;16.40;;;8.70;;
75535;SDS011;64119;52.070;20.804;2023-03-17T06:45:36;21.60;;;10.70;;
75535;SDS011;64119;52.070;20.804;2023-03-17T06:48:04;22.90;;;11.20;;
75535;SDS011;64119;52.070;20.804;2023-03-17T06:50:33;18.30;;;8.20;;
75535;SDS011;64119;52.070;20.804;2023-03-17T06:53:01;23.00;;;11.30;;
75535;SDS011;64119;52.070;20.804;2023-03-17T06:55:29;18.70;;;9.20;;
75535;SDS011;64119;52.070;20.804;2023-03-17T06:58:01;19.80;;;10.20;;
75535;SDS011;64119;52.070;20.804;2023-03-17T07:00:29;18.30;;;9.10;;
75535;SDS011;64119;52.070;20.804;2023-03-17T07:02:57;22.20;;;11.20;;
75535;SDS011;64119;52.070;20.804;2023-03-17T07:05:25;19.30;;;9.20;;
75535;SDS011;64119;52.070;20.804;2023-03-17T07:07:53;19.40;;;9.70;;
75535;SDS011;64119;52.070;20.804;2023-03-17T07:10:20;18.00;;;10.70;;
75535;SDS011;64119;52.070;20.804;2023-03-17T07:12:49;20.10;;;9.00;;
75535;SDS011;64119;52.070;20.804;2023-03-17T07:15:17;14.80;;;8.10;;
75535;SDS011;64119;52.070;20.804;2023-03-17T07:17:45;17.40;;;8.50;;
75535;SDS011;64119;52.070;20.804;2023-03-17T07:20:15;14.40;;;6.00;;
75535;SDS011;64119;52.070;20.804;2023-03-17T07:22:45;14.80;;;8.30;;
75535;SDS011;64119;52.070;20.804;2023-03-17T07:25:12;13.80;;;7.60;;
75535;SDS011;64119;52.070;20.804;2023-03-17T07:27:40;16.90;;;7.90;;
75535;SDS011;64119;52.070;20.804;2023-03-17T07:30:08;20.20;;;9.20;;
75535;SDS011;64119;52.070;20.804;2023-03-17T07:32:37;9.00;;;5.40;;
75535;SDS011;64119;52.070;20.804;2023-03-17T07:35:05;18.60;;;7.40;;
75535;SDS011;64119;52.070;20.804;2023-03-17T07:37:34;17.30;;;9.30;;
75535;SDS011;64119;52.070;20.804;2023-03-17T07:40:03;13.80;;;6.70;;
75535;SDS011;64119;52.070;20.804;2023-03-17T07:42:31;13.90;;;7.20;;
75535;SDS011;64119;52.070;20.804;2023-03-17T07:45:00;12.50;;;7.20;;
75535;SDS011;64119;52.070;20.804;2023-03-17T07:47:30;18.70;;;8.00;;
75535;SDS011;64119;52.070;20.804;2023-03-17T07:49:58;10.70;;;5.40;;
75535;SDS011;64119;52.070;20.804;2023-03-17T07:52:25;14.00;;;7.60;;
75535;SDS011;64119;52.070;20.804;2023-03-17T07:54:53;15.40;;;7.30;;
75535;SDS011;64119;52.070;20.804;2023-03-17T07:57:22;12.00;;;6.70;;
75535;SDS011;64119;52.070;20.804;2023-03-17T07:59:50;10.10;;;4.70;;
75535;SDS011;64119;52.070;20.804;2023-03-17T08:02:18;11.30;;;6.20;;
75535;SDS011;64119;52.070;20.804;2023-03-17T08:04:46;82.40;;;13.40;;
75535;SDS011;64119;52.070;20.804;2023-03-17T08:07:14;10.80;;;5.70;;
75535;SDS011;64119;52.070;20.804;2023-03-17T08:09:42;12.30;;;5.80;;
75535;SDS011;64119;52.070;20.804;2023-03-17T08:12:09;9.20;;;4.70;;
75535;SDS011;64119;52.070;20.804;2023-03-17T08:14:38;12.70;;;5.60;;
75535;SDS011;64119;52.070;20.804;2023-03-17T08:17:06;9.20;;;4.50;;
75535;SDS011;64119;52.070;20.804;2023-03-17T08:19:34;7.50;;;4.20;;
75535;SDS011;64119;52.070;20.804;2023-03-17T08:22:02;11.00;;;5.00;;
75535;SDS011;64119;52.070;20.804;2023-03-17T08:24:29;4.90;;;2.90;;
75535;SDS011;64119;52.070;20.804;2023-03-17T08:26:57;7.60;;;4.40;;
75535;SDS011;64119;52.070;20.804;2023-03-17T08:29:27;11.60;;;4.90;;
75535;SDS011;64119;52.070;20.804;2023-03-17T08:31:55;8.30;;;4.60;;
75535;SDS011;64119;52.070;20.804;2023-03-17T08:34:23;9.20;;;4.30;;
75535;SDS011;64119;52.070;20.804;2023-03-17T08:36:52;9.50;;;4.90;;
75535;SDS011;64119;52.070;20.804;2023-03-17T08:39:20;5.80;;;3.40;;
75535;SDS011;64119;52.070;20.804;2023-03-17T08:41:48;7.90;;;4.20;;
75535;SDS011;64119;52.070;20.804;2023-03-17T08:44:17;5.90;;;3.30;;
75535;SDS011;64119;52.070;20.804;2023-03-17T08:46:46;6.50;;;3.70;;
75535;SDS011;64119;52.070;20.804;2023-03-17T08:49:15;7.60;;;3.40;;
75535;SDS011;64119;52.070;20.804;2023-03-17T08:51:44;6.70;;;3.40;;
75535;SDS011;64119;52.070;20.804;2023-03-17T08:54:11;5.80;;;2.50;;
75535;SDS011;64119;52.070;20.804;2023-03-17T08:56:40;6.70;;;2.70;;
75535;SDS011;64119;52.070;20.804;2023-03-17T08:59:09;6.30;;;2.50;;
75535;SDS011;64119;52.070;20.804;2023-03-17T09:01:37;5.80;;;3.20;;
75535;SDS011;64119;52.070;20.804;2023-03-17T09:06:35;5.70;;;2.90;;
75535;SDS011;64119;52.070;20.804;2023-03-17T09:09:05;4.60;;;3.20;;
75535;SDS011;64119;52.070;20.804;2023-03-17T09:11:33;6.20;;;3.40;;
75535;SDS011;64119;52.070;20.804;2023-03-17T09:14:01;6.40;;;3.50;;
75535;SDS011;64119;52.070;20.804;2023-03-17T09:16:29;5.50;;;3.10;;
75535;SDS011;64119;52.070;20.804;2023-03-17T09:19:00;5.40;;;2.70;;
75535;SDS011;64119;52.070;20.804;2023-03-17T09:21:28;7.90;;;3.40;;
75535;SDS011;64119;52.070;20.804;2023-03-17T09:23:56;6.60;;;3.40;;
75535;SDS011;64119;52.070;20.804;2023-03-17T09:26:24;4.80;;;3.40;;
75535;SDS011;64119;52.070;20.804;2023-03-17T09:28:52;10.00;;;3.90;;
75535;SDS011;64119;52.070;20.804;2023-03-17T09:31:20;5.60;;;3.20;;
75535;SDS011;64119;52.070;20.804;2023-03-17T09:33:48;6.80;;;3.90;;
75535;SDS011;64119;52.070;20.804;2023-03-17T09:36:18;6.60;;;3.60;;
75535;SDS011;64119;52.070;20.804;2023-03-17T09:38:46;6.90;;;4.00;;
75535;SDS011;64119;52.070;20.804;2023-03-17T09:41:22;7.60;;;3.20;;
75535;SDS011;64119;52.070;20.804;2023-03-17T09:44:23;7.60;;;4.30;;
75535;SDS011;64119;52.070;20.804;2023-03-17T09:47:10;6.90;;;4.00;;
75535;SDS011;64119;52.070;20.804;2023-03-17T09:49:55;8.00;;;4.80;;
75535;SDS011;64119;52.070;20.804;2023-03-17T09:52:27;7.00;;;4.00;;
75535;SDS011;64119;52.070;20.804;2023-03-17T09:54:56;9.40;;;4.10;;
75535;SDS011;64119;52.070;20.804;2023-03-17T09:57:29;7.30;;;4.50;;
75535;SDS011;64119;52.070;20.804;2023-03-17T10:00:02;4.50;;;3.10;;
75535;SDS011;64119;52.070;20.804;2023-03-17T10:02:41;5.50;;;3.90;;
75535;SDS011;64119;52.070;20.804;2023-03-17T10:05:16;7.20;;;3.50;;
75535;SDS011;64119;52.070;20.804;2023-03-17T10:07:50;9.20;;;3.60;;
75535;SDS011;64119;52.070;20.804;2023-03-17T10:13:09;5.70;;;3.20;;
75535;SDS011;64119;52.070;20.804;2023-03-17T10:18:22;5.20;;;3.10;;
75535;SDS011;64119;52.070;20.804;2023-03-17T10:20:54;7.00;;;2.80;;
75535;SDS011;64119;52.070;20.804;2023-03-17T10:23:29;5.20;;;3.00;;
75535;SDS011;64119;52.070;20.804;2023-03-17T10:26:01;4.30;;;2.60;;
75535;SDS011;64119;52.070;20.804;2023-03-17T10:28:34;5.30;;;2.40;;
75535;SDS011;64119;52.070;20.804;2023-03-17T10:31:15;5.20;;;2.90;;
75535;SDS011;64119;52.070;20.804;2023-03-17T10:33:48;4.70;;;2.90;;
75535;SDS011;64119;52.070;20.804;2023-03-17T10:36:31;6.40;;;4.00;;
75535;SDS011;64119;52.070;20.804;2023-03-17T10:39:04;6.30;;;2.80;;
75535;SDS011;64119;52.070;20.804;2023-03-17T10:41:35;5.90;;;3.10;;
75535;SDS011;64119;52.070;20.804;2023-03-17T10:44:08;5.30;;;2.70;;
75535;SDS011;64119;52.070;20.804;2023-03-17T10:46:51;4.30;;;2.80;;
75535;SDS011;64119;52.070;20.804;2023-03-17T10:49:22;4.50;;;2.40;;
75535;SDS011;64119;52.070;20.804;2023-03-17T10:51:52;5.30;;;3.10;;
75535;SDS011;64119;52.070;20.804;2023-03-17T10:54:22;6.80;;;4.00;;
75535;SDS011;64119;52.070;20.804;2023-03-17T10:57:00;7.50;;;3.60;;
75535;SDS011;64119;52.070;20.804;2023-03-17T10:59:30;6.00;;;2.90;;
75535;SDS011;64119;52.070;20.804;2023-03-17T11:02:18;5.80;;;2.90;;
75535;SDS011;64119;52.070;20.804;2023-03-17T11:04:51;6.50;;;3.40;;
75535;SDS011;64119;52.070;20.804;2023-03-17T11:07:37;4.90;;;3.20;;
75535;SDS011;64119;52.070;20.804;2023-03-17T11:10:14;6.20;;;3.10;;
75535;SDS011;64119;52.070;20.804;2023-03-17T11:12:46;8.80;;;3.00;;
75535;SDS011;64119;52.070;20.804;2023-03-17T11:15:20;5.10;;;2.70;;
75535;SDS011;64119;52.070;20.804;2023-03-17T11:17:56;7.40;;;3.20;;
75535;SDS011;64119;52.070;20.804;2023-03-17T11:20:43;5.10;;;2.90;;
75535;SDS011;64119;52.070;20.804;2023-03-17T11:29:19;5.20;;;2.60;;
75535;SDS011;64119;52.070;20.804;2023-03-17T11:34:54;6.30;;;3.30;;
75535;SDS011;64119;52.070;20.804;2023-03-17T11:40:18;3.40;;;2.30;;
75535;SDS011;64119;52.070;20.804;2023-03-17T12:05:06;7.10;;;3.00;;
75535;SDS011;64119;52.070;20.804;2023-03-17T12:08:07;6.60;;;3.00;;
75535;SDS011;64119;52.070;20.804;2023-03-17T12:10:49;4.60;;;2.20;;
75535;SDS011;64119;52.070;20.804;2023-03-17T12:13:40;5.10;;;2.70;;
75535;SDS011;64119;52.070;20.804;2023-03-17T12:16:22;3.90;;;2.10;;
75535;SDS011;64119;52.070;20.804;2023-03-17T12:19:24;4.70;;;2.10;;
75535;SDS011;64119;52.070;20.804;2023-03-17T12:22:01;5.90;;;2.90;;
75535;SDS011;64119;52.070;20.804;2023-03-17T12:24:35;6.80;;;2.60;;
75535;SDS011;64119;52.070;20.804;2023-03-17T12:27:10;5.80;;;3.00;;
75535;SDS011;64119;52.070;20.804;2023-03-17T12:29:43;4.20;;;2.40;;
75535;SDS011;64119;52.070;20.804;2023-03-17T12:34:57;7.70;;;3.50;;
75535;SDS011;64119;52.070;20.804;2023-03-17T12:37:28;5.50;;;3.20;;
75535;SDS011;64119;52.070;20.804;2023-03-17T12:39:58;4.50;;;2.80;;
75535;SDS011;64119;52.070;20.804;2023-03-17T12:53:33;5.70;;;3.50;;
75535;SDS011;64119;52.070;20.804;2023-03-17T12:56:13;5.80;;;2.80;;
75535;SDS011;64119;52.070;20.804;2023-03-17T12:58:44;4.90;;;2.60;;
75535;SDS011;64119;52.070;20.804;2023-03-17T13:01:28;6.90;;;3.40;;
75535;SDS011;64119;52.070;20.804;2023-03-17T13:06:57;6.40;;;3.70;;
75535;SDS011;64119;52.070;20.804;2023-03-17T13:11:58;8.80;;;3.60;;
75535;SDS011;64119;52.070;20.804;2023-03-17T13:19:53;13.10;;;4.50;;
75535;SDS011;64119;52.070;20.804;2023-03-17T13:24:50;6.00;;;3.30;;
75535;SDS011;64119;52.070;20.804;2023-03-17T13:29:59;4.60;;;2.50;;
75535;SDS011;64119;52.070;20.804;2023-03-17T13:32:55;5.60;;;2.70;;
75535;SDS011;64119;52.070;20.804;2023-03-17T13:56:56;6.50;;;3.40;;
75535;SDS011;64119;52.070;20.804;2023-03-17T14:02:13;6.60;;;4.30;;
75535;SDS011;64119;52.070;20.804;2023-03-17T14:04:53;7.50;;;3.50;;
75535;SDS011;64119;52.070;20.804;2023-03-17T14:07:25;8.10;;;3.20;;
75535;SDS011;64119;52.070;20.804;2023-03-17T14:09:59;8.50;;;4.20;;
75535;SDS011;64119;52.070;20.804;2023-03-17T14:18:06;7.90;;;5.10;;
75535;SDS011;64119;52.070;20.804;2023-03-17T14:20:37;8.70;;;4.60;;
75535;SDS011;64119;52.070;20.804;2023-03-17T14:23:05;7.90;;;3.60;;
75535;SDS011;64119;52.070;20.804;2023-03-17T14:25:34;6.70;;;4.10;;
75535;SDS011;64119;52.070;20.804;2023-03-17T14:28:07;10.70;;;5.30;;
75535;SDS011;64119;52.070;20.804;2023-03-17T14:30:41;9.90;;;5.20;;
75535;SDS011;64119;52.070;20.804;2023-03-17T14:33:22;10.40;;;4.60;;
75535;SDS011;64119;52.070;20.804;2023-03-17T14:35:58;6.70;;;4.40;;
75535;SDS011;64119;52.070;20.804;2023-03-17T14:38:29;7.10;;;3.50;;
75535;SDS011;64119;52.070;20.804;2023-03-17T14:41:04;9.50;;;5.30;;
75535;SDS011;64119;52.070;20.804;2023-03-17T14:43:34;7.20;;;4.30;;
75535;SDS011;64119;52.070;20.804;2023-03-17T14:46:04;6.80;;;4.10;;
75535;SDS011;64119;52.070;20.804;2023-03-17T14:48:46;9.70;;;4.20;;
75535;SDS011;64119;52.070;20.804;2023-03-17T14:53:49;6.30;;;3.90;;
75535;SDS011;64119;52.070;20.804;2023-03-17T14:56:22;10.50;;;5.10;;
75535;SDS011;64119;52.070;20.804;2023-03-17T14:58:53;8.50;;;4.60;;
75535;SDS011;64119;52.070;20.804;2023-03-17T15:01:35;8.70;;;4.30;;
75535;SDS011;64119;52.070;20.804;2023-03-17T15:04:08;9.70;;;5.00;;
75535;SDS011;64119;52.070;20.804;2023-03-17T15:06:52;7.10;;;4.10;;
75535;SDS011;64119;52.070;20.804;2023-03-17T15:09:25;6.90;;;4.10;;
75535;SDS011;64119;52.070;20.804;2023-03-17T15:14:49;7.60;;;4.40;;
75535;SDS011;64119;52.070;20.804;2023-03-17T15:17:33;9.90;;;4.40;;
75535;SDS011;64119;52.070;20.804;2023-03-17T15:20:11;7.20;;;4.10;;
75535;SDS011;64119;52.070;20.804;2023-03-17T15:22:43;7.40;;;3.90;;
75535;SDS011;64119;52.070;20.804;2023-03-17T15:25:17;10.30;;;5.40;;
75535;SDS011;64119;52.070;20.804;2023-03-17T15:27:50;8.60;;;4.40;;
75535;SDS011;64119;52.070;20.804;2023-03-17T15:30:18;6.60;;;4.10;;
75535;SDS011;64119;52.070;20.804;2023-03-17T15:32:58;6.60;;;3.70;;
75535;SDS011;64119;52.070;20.804;2023-03-17T15:35:28;5.80;;;3.00;;
75535;SDS011;64119;52.070;20.804;2023-03-17T15:37:56;6.80;;;3.50;;
75535;SDS011;64119;52.070;20.804;2023-03-17T15:40:24;10.90;;;4.00;;
75535;SDS011;64119;52.070;20.804;2023-03-17T15:42:52;5.80;;;3.10;;
75535;SDS011;64119;52.070;20.804;2023-03-17T15:45:19;8.10;;;4.00;;
75535;SDS011;64119;52.070;20.804;2023-03-17T15:47:47;9.00;;;4.50;;
75535;SDS011;64119;52.070;20.804;2023-03-17T15:52:50;14.10;;;6.80;;
75535;SDS011;64119;52.070;20.804;2023-03-17T15:55:28;10.00;;;7.00;;
75535;SDS011;64119;52.070;20.804;2023-03-17T15:57:57;7.90;;;4.80;;
75535;SDS011;64119;52.070;20.804;2023-03-17T16:00:26;8.20;;;4.10;;
75535;SDS011;64119;52.070;20.804;2023-03-17T16:02:57;15.00;;;9.30;;
75535;SDS011;64119;52.070;20.804;2023-03-17T16:05:28;13.40;;;7.00;;
75535;SDS011;64119;52.070;20.804;2023-03-17T16:07:58;10.20;;;5.50;;
75535;SDS011;64119;52.070;20.804;2023-03-17T16:10:27;8.10;;;4.60;;
75535;SDS011;64119;52.070;20.804;2023-03-17T16:12:58;7.10;;;4.20;;
75535;SDS011;64119;52.070;20.804;2023-03-17T16:15:27;14.00;;;7.10;;
75535;SDS011;64119;52.070;20.804;2023-03-17T16:17:58;9.90;;;5.10;;
75535;SDS011;64119;52.070;20.804;2023-03-17T16:20:37;9.10;;;4.40;;
75535;SDS011;64119;52.070;20.804;2023-03-17T16:23:10;13.00;;;6.90;;
75535;SDS011;64119;52.070;20.804;2023-03-17T16:25:41;7.90;;;4.20;;
75535;SDS011;64119;52.070;20.804;2023-03-17T16:30:49;8.40;;;4.70;;
75535;SDS011;64119;52.070;20.804;2023-03-17T16:36:20;13.60;;;8.90;;
75535;SDS011;64119;52.070;20.804;2023-03-17T16:38:50;7.90;;;4.30;;
75535;SDS011;64119;52.070;20.804;2023-03-17T16:41:22;10.20;;;6.50;;
75535;SDS011;64119;52.070;20.804;2023-03-17T16:43:58;40.30;;;20.30;;
75535;SDS011;64119;52.070;20.804;2023-03-17T16:46:30;17.50;;;9.10;;
75535;SDS011;64119;52.070;20.804;2023-03-17T16:49:02;15.20;;;9.40;;
75535;SDS011;64119;52.070;20.804;2023-03-17T16:51:31;17.50;;;10.90;;
75535;SDS011;64119;52.070;20.804;2023-03-17T16:53:59;12.80;;;6.80;;
75535;SDS011;64119;52.070;20.804;2023-03-17T16:56:26;17.80;;;9.50;;
75535;SDS011;64119;52.070;20.804;2023-03-17T16:58:55;14.80;;;7.10;;
75535;SDS011;64119;52.070;20.804;2023-03-17T17:01:23;11.20;;;6.40;;
75535;SDS011;64119;52.070;20.804;2023-03-17T17:03:53;9.60;;;4.90;;
75535;SDS011;64119;52.070;20.804;2023-03-17T17:06:22;7.40;;;4.00;;
75535;SDS011;64119;52.070;20.804;2023-03-17T17:08:50;8.70;;;4.40;;
75535;SDS011;64119;52.070;20.804;2023-03-17T17:11:18;10.10;;;4.30;;
75535;SDS011;64119;52.070;20.804;2023-03-17T17:13:47;9.10;;;4.80;;